Randalia, Iowa
Current Conditions -  °F | °C
As of 6:15 PM on Friday 19 Dec 2014 (Local Time) from KOLZ Reporting Station
Overcast Overcast  
Wind Chill: 21°   Ceiling: 3700
Heat Index: 28°   Visibility: 10mi
Dew Point: 23°   Wind: 7mph
Humidity: 80%   Direction: 140°SE
Pressure: 30.23"   Gusts: NA
Location:  42.86°N, 91.89°W
Report Text: KOLZ 200015Z AUTO 14006KT 10SM OVC037 M02/M05 A3023 RMK AO2
Loading
Personal Weather Stations






























Interactive Weather Map New forecast layout! Learn more

10-Day Weather Forecast

Advertisements
Track Severe Weather on mobile